createdAt,value
2022-12-11T00:10:23.000Z,-1.28
2022-12-11T00:24:59.000Z,-1.26
2022-12-11T00:39:36.000Z,-1.25
2022-12-11T00:54:13.000Z,-1.16
2022-12-11T01:08:50.000Z,-1.14
2022-12-11T01:23:25.000Z,-1.03
2022-12-11T01:38:00.000Z,-1.37
2022-12-11T01:52:37.000Z,-1.34
2022-12-11T02:07:14.000Z,-1.32
2022-12-11T02:21:50.000Z,-1.53
2022-12-11T02:36:26.000Z,-1.28
2022-12-11T02:51:01.000Z,-1.58
2022-12-11T03:05:37.000Z,-1.73
2022-12-11T03:20:14.000Z,-1.67
2022-12-11T03:34:49.000Z,-1.79
2022-12-11T03:49:26.000Z,-1.87
2022-12-11T04:03:56.000Z,-1.78
2022-12-11T04:18:33.000Z,-1.54
2022-12-11T04:33:09.000Z,-1.43
2022-12-11T04:47:47.000Z,-1.43
2022-12-11T05:02:24.000Z,-1.43
2022-12-11T05:16:59.000Z,-1.35
2022-12-11T05:31:36.000Z,-1.33
2022-12-11T05:46:14.000Z,-1.43
2022-12-11T06:00:41.000Z,-1.26
2022-12-11T06:15:15.000Z,-1.26
2022-12-11T06:29:51.000Z,-1.28
2022-12-11T06:44:28.000Z,-1
2022-12-11T06:58:58.000Z,-1.52
2022-12-11T07:13:35.000Z,-1.33
2022-12-11T07:28:10.000Z,-1.19
2022-12-11T07:42:46.000Z,-1.14
2022-12-11T07:57:22.000Z,-1
2022-12-11T08:11:54.000Z,-0.89
2022-12-11T08:26:25.000Z,-0.93
2022-12-11T08:40:58.000Z,-0.7
2022-12-11T08:55:34.000Z,-0.59
2022-12-11T09:10:10.000Z,-0.23
2022-12-11T09:24:48.000Z,-0.38
2022-12-11T09:39:25.000Z,-0.25
2022-12-11T09:54:02.000Z,-0.18
2022-12-11T10:08:39.000Z,-0.21
2022-12-11T10:23:18.000Z,0.13
2022-12-11T10:37:49.000Z,0.03
2022-12-11T10:52:27.000Z,0.32
2022-12-11T11:07:04.000Z,0.61
2022-12-11T11:21:43.000Z,0.7
2022-12-11T11:36:14.000Z,0.89
2022-12-11T11:50:50.000Z,0.36
2022-12-11T12:05:26.000Z,0.19
2022-12-11T12:20:02.000Z,0.79
2022-12-11T12:34:40.000Z,0.84
2022-12-11T12:49:17.000Z,0.74
2022-12-11T13:03:54.000Z,0.48
2022-12-11T13:18:30.000Z,0.9
2022-12-11T13:33:07.000Z,1.02
2022-12-11T13:47:45.000Z,0.88
2022-12-11T14:02:18.000Z,0.67
2022-12-11T14:16:45.000Z,0.49
2022-12-11T14:31:22.000Z,0.68
2022-12-11T14:45:57.000Z,0.61
2022-12-11T15:00:27.000Z,0.51
2022-12-11T15:14:56.000Z,0.45
2022-12-11T15:29:26.000Z,0.45
2022-12-11T15:44:02.000Z,0.2
2022-12-11T15:58:39.000Z,0.27
2022-12-11T16:13:15.000Z,0.18
2022-12-11T16:27:51.000Z,0.19
2022-12-11T16:42:22.000Z,0.26
2022-12-11T16:56:58.000Z,0.08
2022-12-11T17:11:29.000Z,0.19
2022-12-11T17:26:08.000Z,0.2
2022-12-11T17:40:42.000Z,0.38
2022-12-11T17:55:18.000Z,0.19
2022-12-11T18:09:55.000Z,0.18
2022-12-11T18:24:30.000Z,0.27
2022-12-11T18:38:59.000Z,0.13
2022-12-11T18:53:31.000Z,-0.15
2022-12-11T19:08:08.000Z,-0.62
2022-12-11T19:22:42.000Z,-0.52
2022-12-11T19:37:19.000Z,-0.4
2022-12-11T19:51:56.000Z,-0.4
2022-12-11T20:06:31.000Z,-0.25
2022-12-11T20:21:08.000Z,-0.24
2022-12-11T20:35:45.000Z,0
2022-12-11T20:50:14.000Z,-0.26
2022-12-11T21:04:51.000Z,-0.26
2022-12-11T21:19:25.000Z,-0.22
2022-12-11T21:33:58.000Z,-0.06
2022-12-11T21:48:36.000Z,-0.11
2022-12-11T22:03:12.000Z,-0.16
2022-12-11T22:17:49.000Z,-0.12
2022-12-11T22:32:25.000Z,-0.11
2022-12-11T22:47:00.000Z,-0.11
2022-12-11T23:01:37.000Z,-0.16
2022-12-11T23:16:14.000Z,-0.38
2022-12-11T23:30:50.000Z,-0.75
2022-12-11T23:45:22.000Z,-0.65
2022-12-11T23:59:59.000Z,-0.43
